createdAt,value
2019-04-01T00:02:16.324Z,32.20
2019-04-01T00:04:44.728Z,33.20
2019-04-01T00:07:13.206Z,34.43
2019-04-01T00:09:41.612Z,32.33
2019-04-01T00:12:10.030Z,32.40
2019-04-01T00:14:38.433Z,39.23
2019-04-01T00:17:06.844Z,34.80
2019-04-01T00:19:35.249Z,36.60
2019-04-01T00:22:03.657Z,33.87
2019-04-01T00:24:32.064Z,37.27
2019-04-01T00:27:00.535Z,37.37
2019-04-01T00:29:28.945Z,38.23
2019-04-01T00:31:57.357Z,34.40
2019-04-01T00:34:25.779Z,41.03
2019-04-01T00:36:54.191Z,34.57
2019-04-01T00:39:22.606Z,33.03
2019-04-01T00:41:52.649Z,42.40
2019-04-01T00:44:21.065Z,36.70
2019-04-01T00:46:49.473Z,36.90
2019-04-01T00:49:17.887Z,34.60
2019-04-01T00:51:46.290Z,34.17
2019-04-01T00:54:14.725Z,35.83
2019-04-01T00:56:43.122Z,40.33
2019-04-01T00:59:11.533Z,34.33
2019-04-01T01:01:39.939Z,32.47
2019-04-01T01:04:08.342Z,37.17
2019-04-01T01:06:37.055Z,37.97
2019-04-01T01:09:06.633Z,38.93
2019-04-01T01:11:35.042Z,40.73
2019-04-01T01:14:03.515Z,38.40
2019-04-01T01:16:31.916Z,35.90
2019-04-01T01:19:00.321Z,38.20
2019-04-01T01:21:28.729Z,38.40
2019-04-01T01:23:57.138Z,35.43
2019-04-01T01:26:25.548Z,36.10
2019-04-01T01:28:53.979Z,33.57
2019-04-01T01:31:22.389Z,36.90
2019-04-01T01:33:50.798Z,33.87
2019-04-01T01:36:19.209Z,38.87
2019-04-01T01:38:47.697Z,35.07
2019-04-01T01:41:16.373Z,38.27
2019-04-01T01:43:44.777Z,36.03
2019-04-01T01:46:13.185Z,35.70
2019-04-01T01:48:41.590Z,36.77
2019-04-01T01:51:10.004Z,33.17
2019-04-01T01:53:41.511Z,36.57
2019-04-01T01:56:08.528Z,33.87
2019-04-01T01:58:36.935Z,35.63
2019-04-01T02:01:05.337Z,32.07
2019-04-01T02:03:33.737Z,31.67
2019-04-01T02:06:02.136Z,31.47
2019-04-01T02:08:30.548Z,29.07
2019-04-01T02:10:58.981Z,38.37
2019-04-01T02:13:27.387Z,31.53
2019-04-01T02:15:55.808Z,30.33
2019-04-01T02:18:24.198Z,30.47
2019-04-01T02:20:52.601Z,33.43
2019-04-01T02:23:21.007Z,30.70
2019-04-01T02:25:49.413Z,30.73
2019-04-01T02:28:17.818Z,31.97
2019-04-01T02:30:46.229Z,28.63
2019-04-01T02:33:14.638Z,33.13
2019-04-01T02:35:43.178Z,29.77
2019-04-01T02:38:11.637Z,28.27
2019-04-01T02:40:40.048Z,27.77
2019-04-01T02:43:08.441Z,27.57
2019-04-01T02:45:36.844Z,26.90
2019-04-01T02:48:05.252Z,24.13
2019-04-01T02:50:33.829Z,24.53
2019-04-01T02:53:02.315Z,28.70
2019-04-01T02:55:30.736Z,28.50
2019-04-01T02:57:59.145Z,27.33
2019-04-01T03:00:27.832Z,24.50
2019-04-01T03:02:56.243Z,26.20
2019-04-01T03:05:24.662Z,26.27
2019-04-01T03:07:53.074Z,25.97
2019-04-01T03:10:21.488Z,26.40
2019-04-01T03:12:49.890Z,26.03
2019-04-01T03:15:18.323Z,27.93
2019-04-01T03:17:46.708Z,23.67
2019-04-01T03:20:15.116Z,22.67
2019-04-01T03:22:43.529Z,25.53
2019-04-01T03:25:11.933Z,25.67
2019-04-01T03:27:40.342Z,24.00
2019-04-01T03:30:08.743Z,26.70
2019-04-01T03:32:44.201Z,25.20
2019-04-01T03:35:07.404Z,24.37
2019-04-01T03:37:35.864Z,23.40
2019-04-01T03:40:06.013Z,24.50
2019-04-01T03:42:34.434Z,25.60
2019-04-01T03:45:02.956Z,25.23
2019-04-01T03:47:31.365Z,24.93
2019-04-01T03:49:59.766Z,25.20
2019-04-01T03:52:28.174Z,21.73
2019-04-01T03:54:56.579Z,23.63
2019-04-01T03:57:25.000Z,23.80
2019-04-01T03:59:53.412Z,27.27
2019-04-01T04:02:21.824Z,24.57
2019-04-01T04:04:50.257Z,22.23
2019-04-01T04:07:18.693Z,20.80
2019-04-01T04:09:47.094Z,22.53
2019-04-01T04:12:15.509Z,23.77
2019-04-01T04:14:43.932Z,21.87
2019-04-01T04:17:12.324Z,25.70
2019-04-01T04:19:40.725Z,26.83
2019-04-01T04:22:09.138Z,22.93
2019-04-01T04:24:38.027Z,21.87
2019-04-01T04:27:10.884Z,21.30
2019-04-01T04:29:36.855Z,20.60
2019-04-01T04:32:05.290Z,22.70
2019-04-01T04:34:34.005Z,21.13
2019-04-01T04:37:02.678Z,21.93
2019-04-01T04:39:31.288Z,21.03
2019-04-01T04:41:59.742Z,23.90
2019-04-01T04:44:28.425Z,22.07
2019-04-01T04:46:57.106Z,21.87
2019-04-01T04:49:25.542Z,21.33
2019-04-01T04:51:54.017Z,24.33
2019-04-01T04:54:22.585Z,23.70
2019-04-01T04:56:51.076Z,21.30
2019-04-01T04:59:19.525Z,24.53
2019-04-01T05:01:47.942Z,25.07
2019-04-01T05:04:16.382Z,20.07
2019-04-01T05:06:44.878Z,26.13
2019-04-01T05:09:13.276Z,26.97
2019-04-01T05:11:41.691Z,20.57
2019-04-01T05:14:10.095Z,24.37
2019-04-01T05:16:38.503Z,24.23
2019-04-01T05:19:06.906Z,25.60
2019-04-01T05:21:36.453Z,27.33
2019-04-01T05:24:04.857Z,22.43
2019-04-01T05:26:36.272Z,25.23
2019-04-01T05:29:05.493Z,22.97
2019-04-01T05:31:35.150Z,20.37
2019-04-01T05:34:03.929Z,21.47
2019-04-01T05:36:32.784Z,21.43
2019-04-01T05:39:01.263Z,21.07
2019-04-01T05:41:29.845Z,20.73
2019-04-01T05:44:02.131Z,35.63
2019-04-01T05:46:29.261Z,30.20
2019-04-01T05:48:57.671Z,27.07
2019-04-01T05:51:26.073Z,28.53
2019-04-01T05:53:54.481Z,24.70
2019-04-01T05:56:23.154Z,24.77
2019-04-01T05:58:51.625Z,22.83
2019-04-01T06:01:27.278Z,21.63
2019-04-01T06:03:55.687Z,20.10
2019-04-01T06:06:24.386Z,29.27
2019-04-01T06:08:53.593Z,28.27
2019-04-01T06:11:21.998Z,21.43
2019-04-01T06:13:50.406Z,20.87
2019-04-01T06:16:18.809Z,20.33
2019-04-01T06:18:47.384Z,19.27
2019-04-01T06:21:15.861Z,19.20
2019-04-01T06:23:44.272Z,24.80
2019-04-01T06:26:12.835Z,19.00
2019-04-01T06:28:41.241Z,20.43
2019-04-01T06:31:09.649Z,19.93
2019-04-01T06:33:38.130Z,17.17
2019-04-01T06:36:06.538Z,16.07
2019-04-01T06:38:35.045Z,14.10
2019-04-01T06:41:03.525Z,17.03
2019-04-01T06:43:31.930Z,13.37
2019-04-01T06:46:00.515Z,13.90
2019-04-01T06:48:28.914Z,19.90
2019-04-01T06:50:57.309Z,13.73
2019-04-01T06:53:26.020Z,11.97
2019-04-01T06:55:54.418Z,12.87
2019-04-01T06:58:22.832Z,15.13
2019-04-01T07:00:51.802Z,16.37
2019-04-01T07:03:20.216Z,11.60
2019-04-01T07:05:49.150Z,16.67
2019-04-01T07:08:17.600Z,14.50
2019-04-01T07:10:45.982Z,13.33
2019-04-01T07:13:14.481Z,16.57
2019-04-01T07:15:42.887Z,15.93
2019-04-01T07:18:11.302Z,14.47
2019-04-01T07:20:40.049Z,15.63
2019-04-01T07:23:08.737Z,19.13
2019-04-01T07:25:37.142Z,43.70
2019-04-01T07:28:05.559Z,37.53
2019-04-01T07:30:33.957Z,27.07
2019-04-01T07:33:02.379Z,28.33
2019-04-01T07:35:30.785Z,20.87
2019-04-01T07:37:59.273Z,24.70
2019-04-01T07:40:27.747Z,34.30
2019-04-01T07:42:56.241Z,15.93
2019-04-01T07:45:24.655Z,14.10
2019-04-01T07:47:53.315Z,20.00
2019-04-01T07:50:21.726Z,18.10
2019-04-01T07:52:50.139Z,25.17
2019-04-01T07:55:18.549Z,19.73
2019-04-01T07:57:47.014Z,9.90
2019-04-01T08:00:15.597Z,15.13
2019-04-01T08:02:44.005Z,21.42
2019-04-01T08:05:12.419Z,16.87
2019-04-01T08:07:40.834Z,17.67
2019-04-01T08:10:10.365Z,28.55
2019-04-01T08:12:38.777Z,20.30
2019-04-01T08:15:07.938Z,18.10
2019-04-01T08:17:36.490Z,17.23
2019-04-01T08:20:05.741Z,13.00
2019-04-01T08:22:34.186Z,23.73
2019-04-01T08:25:03.285Z,13.10
2019-04-01T08:27:31.704Z,20.25
2019-04-01T08:30:00.396Z,17.05
2019-04-01T08:32:28.903Z,11.55
2019-04-01T08:34:57.327Z,11.55
2019-04-01T08:37:25.807Z,12.85
2019-04-01T08:39:54.330Z,12.98
2019-04-01T08:42:23.117Z,11.68
2019-04-01T08:44:51.530Z,11.93
2019-04-01T08:47:19.937Z,12.13
2019-04-01T08:49:48.357Z,11.30
2019-04-01T08:52:16.778Z,11.95
2019-04-01T08:54:45.185Z,12.58
2019-04-01T08:57:13.601Z,12.60
2019-04-01T08:59:42.030Z,13.45
2019-04-01T09:02:17.650Z,12.00
2019-04-01T09:04:40.581Z,11.68
2019-04-01T09:07:08.989Z,14.18
2019-04-01T09:09:38.050Z,14.20
2019-04-01T09:12:06.467Z,13.72
2019-04-01T09:14:35.933Z,14.45
2019-04-01T09:17:04.513Z,12.78
2019-04-01T09:19:32.951Z,12.47
2019-04-01T09:22:01.402Z,12.90
2019-04-01T09:24:29.816Z,14.18
2019-04-01T09:26:58.234Z,13.65
2019-04-01T09:29:26.653Z,12.80
2019-04-01T09:31:55.061Z,13.15
2019-04-01T09:34:23.502Z,13.28
2019-04-01T09:36:51.916Z,12.80
2019-04-01T09:39:20.346Z,12.80
2019-04-01T09:41:48.778Z,12.28
2019-04-01T09:44:17.183Z,14.43
2019-04-01T09:46:48.823Z,13.03
2019-04-01T09:49:15.738Z,13.70
2019-04-01T09:51:48.779Z,13.98
2019-04-01T09:54:14.309Z,12.95
2019-04-01T09:56:42.717Z,13.28
2019-04-01T09:59:11.214Z,13.50
2019-04-01T10:01:39.623Z,12.68
2019-04-01T10:04:08.049Z,13.25
2019-04-01T10:06:36.457Z,15.32
2019-04-01T10:09:07.625Z,15.35
2019-04-01T10:11:36.100Z,14.85
2019-04-01T10:14:04.856Z,15.18
2019-04-01T10:16:33.298Z,15.10
2019-04-01T10:19:01.706Z,13.48
2019-04-01T10:21:30.121Z,15.05
2019-04-01T10:23:58.634Z,14.43
2019-04-01T10:26:27.221Z,13.98
2019-04-01T10:28:55.629Z,15.13
2019-04-01T10:31:24.050Z,14.00
2019-04-01T10:33:52.466Z,14.80
2019-04-01T10:36:20.914Z,15.35
2019-04-01T10:38:49.297Z,15.65
2019-04-01T10:41:17.886Z,15.30
2019-04-01T10:43:46.305Z,14.58
2019-04-01T10:46:14.975Z,14.85
2019-04-01T10:48:43.826Z,15.80
2019-04-01T10:51:12.341Z,16.40
2019-04-01T10:53:40.841Z,16.87
2019-04-01T10:56:09.407Z,17.07
2019-04-01T10:58:37.894Z,15.98
2019-04-01T11:01:06.629Z,16.77
2019-04-01T11:03:35.241Z,15.70
2019-04-01T11:06:03.776Z,15.32
2019-04-01T11:08:32.245Z,15.20
2019-04-01T11:11:00.646Z,16.07
2019-04-01T11:13:29.053Z,18.23
2019-04-01T11:15:57.485Z,17.57
2019-04-01T11:18:25.898Z,19.27
2019-04-01T11:20:56.869Z,18.17
2019-04-01T11:23:24.599Z,16.52
2019-04-01T11:25:53.034Z,17.62
2019-04-01T11:28:21.507Z,17.87
2019-04-01T11:30:49.960Z,16.50
2019-04-01T11:33:18.386Z,17.55
2019-04-01T11:35:47.861Z,20.25
2019-04-01T11:38:16.483Z,18.57
2019-04-01T11:40:44.991Z,16.95
2019-04-01T11:43:13.464Z,18.80
2019-04-01T11:45:42.115Z,18.00
2019-04-01T11:48:10.612Z,18.12
2019-04-01T11:50:39.084Z,17.65
2019-04-01T11:53:07.492Z,20.80
2019-04-01T11:55:35.903Z,18.70
2019-04-01T11:58:04.310Z,20.68
2019-04-01T12:00:33.058Z,16.75
2019-04-01T12:03:01.942Z,18.90
2019-04-01T12:05:30.363Z,18.60
2019-04-01T12:07:58.798Z,17.98
2019-04-01T12:10:27.293Z,19.07
2019-04-01T12:12:55.753Z,18.45
2019-04-01T12:15:24.201Z,18.90
2019-04-01T12:17:52.609Z,18.42
2019-04-01T12:20:21.055Z,17.32
2019-04-01T12:22:49.465Z,18.27
2019-04-01T12:25:17.961Z,20.37
2019-04-01T12:27:46.387Z,19.00
2019-04-01T12:30:15.392Z,20.40
2019-04-01T12:32:44.298Z,19.27
2019-04-01T12:35:12.948Z,16.62
2019-04-01T12:37:41.532Z,22.55
2019-04-01T12:40:10.290Z,17.25
2019-04-01T12:42:38.697Z,17.70
2019-04-01T12:45:07.657Z,18.67
2019-04-01T12:47:36.138Z,18.90
2019-04-01T12:50:05.001Z,18.37
2019-04-01T12:52:33.410Z,18.07
2019-04-01T12:55:01.968Z,20.88
2019-04-01T12:57:30.450Z,16.85
2019-04-01T13:00:02.664Z,17.65
2019-04-01T13:02:31.092Z,17.60
2019-04-01T13:04:59.559Z,18.30
2019-04-01T13:07:27.965Z,16.35
2019-04-01T13:09:56.400Z,16.05
2019-04-01T13:12:27.333Z,17.32
2019-04-01T13:14:55.684Z,17.70
2019-04-01T13:17:24.198Z,17.67
2019-04-01T13:19:52.605Z,19.52
2019-04-01T13:22:21.027Z,17.65
2019-04-01T13:24:49.446Z,16.77
2019-04-01T13:27:17.863Z,18.32
2019-04-01T13:29:46.284Z,16.52
2019-04-01T13:32:14.712Z,15.32
2019-04-01T13:34:43.134Z,14.93
2019-04-01T13:37:11.561Z,14.70
2019-04-01T13:39:40.249Z,14.47
2019-04-01T13:42:08.670Z,15.80
2019-04-01T13:44:37.766Z,15.30
2019-04-01T13:47:06.414Z,14.70
2019-04-01T13:49:34.950Z,13.38
2019-04-01T13:52:03.924Z,13.18
2019-04-01T13:54:32.387Z,14.50
2019-04-01T13:57:00.806Z,16.27
2019-04-01T13:59:29.234Z,15.45
2019-04-01T14:01:57.667Z,16.23
2019-04-01T14:04:27.325Z,14.75
2019-04-01T14:06:55.999Z,15.68
2019-04-01T14:09:24.475Z,15.63
2019-04-01T14:11:52.891Z,17.05
2019-04-01T14:14:21.297Z,15.68
2019-04-01T14:16:49.722Z,16.10
2019-04-01T14:19:18.197Z,19.37
2019-04-01T14:21:46.640Z,14.80
2019-04-01T14:24:15.250Z,18.47
2019-04-01T14:26:44.473Z,15.95
2019-04-01T14:29:16.330Z,13.60
2019-04-01T14:31:43.008Z,15.15
2019-04-01T14:34:13.917Z,15.05
2019-04-01T14:36:41.665Z,15.87
2019-04-01T14:39:10.242Z,15.75
2019-04-01T14:41:38.674Z,15.45
2019-04-01T14:44:07.155Z,16.03
2019-04-01T14:46:35.583Z,15.03
2019-04-01T14:49:04.161Z,16.30
2019-04-01T14:51:32.587Z,18.10
2019-04-01T14:54:01.005Z,16.70
2019-04-01T14:56:29.410Z,16.93
2019-04-01T14:58:57.986Z,16.97
2019-04-01T15:01:26.420Z,16.57
2019-04-01T15:03:54.841Z,18.50
2019-04-01T15:06:23.309Z,17.00
2019-04-01T15:08:51.725Z,16.53
2019-04-01T15:11:20.138Z,18.07
2019-04-01T15:13:48.569Z,17.60
2019-04-01T15:16:17.032Z,17.07
2019-04-01T15:18:45.922Z,18.70
2019-04-01T15:21:14.475Z,17.53
2019-04-01T15:23:42.911Z,18.73
2019-04-01T15:26:11.330Z,16.30
2019-04-01T15:28:39.740Z,18.93
2019-04-01T15:31:08.164Z,19.53
2019-04-01T15:33:36.596Z,18.10
2019-04-01T15:36:27.024Z,16.83
2019-04-01T15:38:55.805Z,22.67
2019-04-01T15:41:26.765Z,21.40
2019-04-01T15:43:54.341Z,19.57
2019-04-01T15:46:22.778Z,18.30
2019-04-01T15:48:51.236Z,19.87
2019-04-01T15:51:19.673Z,17.23
2019-04-01T15:53:48.165Z,17.63
2019-04-01T15:56:17.586Z,18.97
2019-04-01T15:58:46.000Z,15.93
2019-04-01T16:01:14.417Z,16.83
2019-04-01T16:03:42.831Z,16.00
2019-04-01T16:06:11.271Z,20.03
2019-04-01T16:08:39.682Z,15.97
2019-04-01T16:11:08.156Z,16.93
2019-04-01T16:13:37.078Z,16.10
2019-04-01T16:16:07.050Z,17.15
2019-04-01T16:18:35.545Z,16.20
2019-04-01T16:21:04.029Z,16.30
2019-04-01T16:23:32.437Z,16.00
2019-04-01T16:26:00.854Z,25.37
2019-04-01T16:28:29.261Z,20.00
2019-04-01T16:30:57.669Z,16.00
2019-04-01T16:33:26.083Z,16.73
2019-04-01T16:35:54.490Z,23.57
2019-04-01T16:38:22.902Z,16.20
2019-04-01T16:40:52.495Z,16.83
2019-04-01T16:43:21.013Z,19.13
2019-04-01T16:45:49.505Z,18.27
2019-04-01T16:48:17.925Z,18.83
2019-04-01T16:50:46.409Z,20.57
2019-04-01T16:53:14.833Z,20.47
2019-04-01T16:55:43.311Z,23.83
2019-04-01T16:58:11.720Z,18.80
2019-04-01T17:00:40.140Z,17.80
2019-04-01T17:03:08.600Z,19.40
2019-04-01T17:05:37.012Z,20.90
2019-04-01T17:08:05.497Z,17.80
2019-04-01T17:10:33.905Z,19.50
2019-04-01T17:13:02.331Z,15.53
2019-04-01T17:15:31.065Z,22.50
2019-04-01T17:17:59.477Z,14.20
2019-04-01T17:20:27.884Z,17.57
2019-04-01T17:22:56.298Z,18.80
2019-04-01T17:25:26.156Z,18.30
2019-04-01T17:27:54.685Z,20.40
2019-04-01T17:30:23.229Z,18.77
2019-04-01T17:32:51.641Z,16.70
2019-04-01T17:35:20.049Z,19.93
2019-04-01T17:37:48.499Z,17.43
2019-04-01T17:40:17.333Z,22.70
2019-04-01T17:42:46.529Z,60.37
2019-04-01T17:45:24.390Z,187.53
2019-04-01T17:47:52.803Z,166.97
2019-04-01T17:50:21.208Z,52.73
2019-04-01T17:52:49.627Z,25.27
2019-04-01T17:55:18.041Z,21.07
2019-04-01T17:57:46.582Z,26.57
2019-04-01T18:00:18.418Z,27.47
2019-04-01T18:02:46.887Z,27.10
2019-04-01T18:05:16.206Z,28.90
2019-04-01T18:07:44.631Z,24.40
2019-04-01T18:10:13.604Z,26.20
2019-04-01T18:12:42.008Z,26.50
2019-04-01T18:15:10.602Z,27.63
2019-04-01T18:17:39.009Z,24.50
2019-04-01T18:20:08.352Z,42.13
2019-04-01T18:22:36.757Z,39.17
2019-04-01T18:25:07.333Z,31.67
2019-04-01T18:27:35.799Z,29.30
2019-04-01T18:30:06.966Z,28.63
2019-04-01T18:32:35.369Z,25.83
2019-04-01T18:35:05.780Z,22.80
2019-04-01T18:37:34.184Z,24.43
2019-04-01T18:40:02.933Z,23.63
2019-04-01T18:42:31.639Z,25.73
2019-04-01T18:45:00.035Z,26.57
2019-04-01T18:47:28.439Z,27.33
2019-04-01T18:49:56.861Z,26.20
2019-04-01T18:52:25.260Z,24.27
2019-04-01T18:54:53.679Z,31.73
2019-04-01T18:57:22.081Z,25.03
2019-04-01T18:59:50.488Z,23.33
2019-04-01T19:02:19.152Z,26.03
2019-04-01T19:04:47.548Z,25.17
2019-04-01T19:07:15.949Z,27.87
2019-04-01T19:09:44.374Z,23.30
2019-04-01T19:12:12.778Z,24.77
2019-04-01T19:14:41.194Z,22.70
2019-04-01T19:17:09.586Z,24.93
2019-04-01T19:19:40.158Z,30.53
2019-04-01T19:22:08.124Z,38.90
2019-04-01T19:24:36.530Z,55.57
2019-04-01T19:27:04.930Z,55.33
2019-04-01T19:29:33.332Z,56.53
2019-04-01T19:32:01.757Z,32.80
2019-04-01T19:34:30.162Z,27.00
2019-04-01T19:36:59.038Z,26.27
2019-04-01T19:39:30.253Z,27.60
2019-04-01T19:41:57.893Z,34.10
2019-04-01T19:44:26.309Z,32.90
2019-04-01T19:46:54.713Z,34.93
2019-04-01T19:49:23.123Z,30.40
2019-04-01T19:51:51.544Z,25.27
2019-04-01T19:54:30.627Z,23.63
2019-04-01T19:56:50.073Z,25.63
2019-04-01T19:59:18.484Z,27.07
2019-04-01T20:01:46.884Z,35.07
2019-04-01T20:04:15.292Z,34.30
2019-04-01T20:06:43.873Z,34.40
2019-04-01T20:09:12.328Z,30.93
2019-04-01T20:11:40.732Z,23.03
2019-04-01T20:14:10.172Z,25.30
2019-04-01T20:16:40.152Z,32.73
2019-04-01T20:19:09.582Z,27.67
2019-04-01T20:21:37.985Z,26.23
2019-04-01T20:24:07.075Z,30.73
2019-04-01T20:26:35.476Z,30.67
2019-04-01T20:29:04.449Z,25.83
2019-04-01T20:31:32.854Z,26.83
2019-04-01T20:34:04.209Z,29.10
2019-04-01T20:36:31.674Z,26.60
2019-04-01T20:39:00.073Z,28.83
2019-04-01T20:41:28.739Z,30.17
2019-04-01T20:43:57.150Z,33.43
2019-04-01T20:46:25.568Z,29.83
2019-04-01T20:48:53.969Z,29.77
2019-04-01T20:51:22.381Z,28.30
2019-04-01T20:53:51.330Z,27.73
2019-04-01T20:56:20.262Z,28.67
2019-04-01T20:58:49.507Z,28.20
2019-04-01T21:01:17.984Z,27.97
2019-04-01T21:03:46.390Z,29.13
2019-04-01T21:06:14.801Z,23.97
2019-04-01T21:08:43.200Z,24.83
2019-04-01T21:11:11.669Z,25.10
2019-04-01T21:13:40.089Z,25.33
2019-04-01T21:16:08.738Z,24.33
2019-04-01T21:18:37.137Z,23.83
2019-04-01T21:21:05.541Z,22.43
2019-04-01T21:23:33.945Z,27.67
2019-04-01T21:26:02.357Z,26.03
2019-04-01T21:28:30.770Z,25.40
2019-04-01T21:30:59.543Z,26.20
2019-04-01T21:33:28.018Z,25.60
2019-04-01T21:35:56.424Z,22.97
2019-04-01T21:38:24.849Z,21.73
2019-04-01T21:40:53.254Z,24.47
2019-04-01T21:43:21.666Z,21.97
2019-04-01T21:45:50.060Z,23.20
2019-04-01T21:48:18.481Z,25.70
2019-04-01T21:50:46.881Z,22.60
2019-04-01T21:53:15.290Z,22.47
2019-04-01T21:55:43.692Z,23.67
2019-04-01T21:58:12.106Z,23.00
2019-04-01T22:00:57.055Z,20.67
2019-04-01T22:03:25.659Z,21.73
2019-04-01T22:05:54.126Z,25.67
2019-04-01T22:08:22.543Z,26.57
2019-04-01T22:10:51.009Z,23.70
2019-04-01T22:13:19.421Z,23.20
2019-04-01T22:15:47.835Z,23.13
2019-04-01T22:18:16.241Z,23.23
2019-04-01T22:20:44.646Z,24.83
2019-04-01T22:23:13.069Z,26.43
2019-04-01T22:25:41.479Z,24.37
2019-04-01T22:28:09.876Z,27.10
2019-04-01T22:30:38.288Z,26.33
2019-04-01T22:33:06.700Z,23.27
2019-04-01T22:35:39.056Z,25.67
2019-04-01T22:38:06.344Z,24.83
2019-04-01T22:40:35.011Z,23.77
2019-04-01T22:43:03.541Z,23.77
2019-04-01T22:45:31.952Z,20.10
2019-04-01T22:48:00.349Z,22.13
2019-04-01T22:50:28.762Z,21.90
2019-04-01T22:52:57.163Z,21.53
2019-04-01T22:55:25.578Z,21.10
2019-04-01T22:57:53.980Z,21.70
2019-04-01T23:00:22.453Z,18.73
2019-04-01T23:02:50.846Z,17.10
2019-04-01T23:05:19.325Z,20.43
2019-04-01T23:07:47.730Z,20.23
2019-04-01T23:10:16.133Z,20.23
2019-04-01T23:12:44.538Z,19.97
2019-04-01T23:15:15.116Z,19.63
2019-04-01T23:17:43.473Z,18.87
2019-04-01T23:20:11.947Z,24.37
2019-04-01T23:22:40.350Z,20.77
2019-04-01T23:25:08.994Z,23.90
2019-04-01T23:27:37.388Z,23.13
2019-04-01T23:30:10.655Z,27.10
2019-04-01T23:32:41.617Z,25.20
2019-04-01T23:35:09.252Z,25.43
2019-04-01T23:37:38.448Z,22.47
2019-04-01T23:40:07.603Z,25.90
2019-04-01T23:42:37.940Z,23.23
2019-04-01T23:45:07.282Z,27.90
2019-04-01T23:47:35.694Z,25.87
2019-04-01T23:50:09.198Z,25.87
2019-04-01T23:52:38.070Z,26.07
2019-04-01T23:55:07.253Z,25.77
2019-04-01T23:57:36.054Z,27.40
